sensor_id;sensor_type;location;lat;lon;timestamp;pressure;altitude;pressure_sealevel;temperature;humidity
61472;BME280;47337;54.068;12.114;2023-07-13T00:01:30;100801.00;;;17.15;100.00
61472;BME280;47337;54.068;12.114;2023-07-13T00:03:56;100803.38;;;17.30;100.00
61472;BME280;47337;54.068;12.114;2023-07-13T00:06:23;100794.59;;;17.27;100.00
61472;BME280;47337;54.068;12.114;2023-07-13T00:08:48;100798.06;;;17.30;100.00
61472;BME280;47337;54.068;12.114;2023-07-13T00:11:15;100792.75;;;17.30;100.00
61472;BME280;47337;54.068;12.114;2023-07-13T00:13:42;100800.88;;;17.21;100.00
61472;BME280;47337;54.068;12.114;2023-07-13T00:16:09;100815.97;;;17.17;100.00
61472;BME280;47337;54.068;12.114;2023-07-13T00:18:35;100808.16;;;17.07;100.00
61472;BME280;47337;54.068;12.114;2023-07-13T00:21:00;100810.75;;;17.11;100.00
61472;BME280;47337;54.068;12.114;2023-07-13T00:23:34;55380.69;;;-143.62;100.00
61472;BME280;47337;54.068;12.114;2023-07-13T00:26:04;73887.41;;;-143.62;100.00
61472;BME280;47337;54.068;12.114;2023-07-13T00:28:29;100802.63;;;17.22;100.00
61472;BME280;47337;54.068;12.114;2023-07-13T00:30:55;100815.06;;;17.17;100.00
61472;BME280;47337;54.068;12.114;2023-07-13T00:33:21;100821.38;;;17.11;100.00
61472;BME280;47337;54.068;12.114;2023-07-13T00:35:48;100819.56;;;17.15;100.00
61472;BME280;47337;54.068;12.114;2023-07-13T00:38:14;100815.06;;;17.18;100.00
61472;BME280;47337;54.068;12.114;2023-07-13T00:40:40;100816.84;;;17.18;100.00
61472;BME280;47337;54.068;12.114;2023-07-13T00:43:14;100816.09;;;17.10;100.00
61472;BME280;47337;54.068;12.114;2023-07-13T00:48:09;100831.28;;;16.99;100.00
61472;BME280;47337;54.068;12.114;2023-07-13T00:50:36;100831.28;;;16.99;100.00
61472;BME280;47337;54.068;12.114;2023-07-13T00:53:02;100830.44;;;16.95;100.00
61472;BME280;47337;54.068;12.114;2023-07-13T00:55:28;100832.25;;;16.95;100.00
61472;BME280;47337;54.068;12.114;2023-07-13T00:57:57;100830.44;;;16.95;100.00
61472;BME280;47337;54.068;12.114;2023-07-13T01:00:26;100827.78;;;16.97;100.00
61472;BME280;47337;54.068;12.114;2023-07-13T01:02:51;100821.69;;;16.92;100.00
61472;BME280;47337;54.068;12.114;2023-07-13T01:05:20;100823.50;;;16.88;100.00
61472;BME280;47337;54.068;12.114;2023-07-13T01:07:48;100818.16;;;16.90;100.00
61472;BME280;47337;54.068;12.114;2023-07-13T01:10:15;100819.00;;;16.95;100.00
61472;BME280;47337;54.068;12.114;2023-07-13T01:12:40;100817.25;;;16.94;100.00
61472;BME280;47337;54.068;12.114;2023-07-13T01:15:45;100805.66;;;16.98;100.00
61472;BME280;47337;54.068;12.114;2023-07-13T01:18:16;100804.81;;;16.96;100.00
61472;BME280;47337;54.068;12.114;2023-07-13T01:20:50;100803.88;;;16.98;100.00
61472;BME280;47337;54.068;12.114;2023-07-13T01:23:16;100802.97;;;17.02;100.00
61472;BME280;47337;54.068;12.114;2023-07-13T01:25:44;100801.16;;;17.04;100.00
61472;BME280;47337;54.068;12.114;2023-07-13T01:28:09;100799.41;;;17.02;100.00
61472;BME280;47337;54.068;12.114;2023-07-13T01:30:40;100795.03;;;16.99;100.00
61472;BME280;47337;54.068;12.114;2023-07-13T01:33:08;100788.00;;;16.97;100.00
61472;BME280;47337;54.068;12.114;2023-07-13T01:35:35;100799.50;;;16.96;100.00
61472;BME280;47337;54.068;12.114;2023-07-13T01:38:01;100802.22;;;16.94;100.00
61472;BME280;47337;54.068;12.114;2023-07-13T01:40:28;100794.97;;;17.04;100.00
61472;BME280;47337;54.068;12.114;2023-07-13T01:42:53;100800.38;;;16.96;100.00
61472;BME280;47337;54.068;12.114;2023-07-13T01:45:19;100798.72;;;16.91;100.00
61472;BME280;47337;54.068;12.114;2023-07-13T01:47:45;100803.16;;;16.89;100.00
61472;BME280;47337;54.068;12.114;2023-07-13T01:50:11;100806.72;;;16.86;100.00
61472;BME280;47337;54.068;12.114;2023-07-13T01:52:36;100803.28;;;16.81;100.00
61472;BME280;47337;54.068;12.114;2023-07-13T01:55:02;100801.53;;;16.78;100.00
61472;BME280;47337;54.068;12.114;2023-07-13T01:57:28;100792.78;;;16.73;100.00
61472;BME280;47337;54.068;12.114;2023-07-13T01:59:53;100800.81;;;16.67;100.00
61472;BME280;47337;54.068;12.114;2023-07-13T02:02:19;100810.56;;;16.64;100.00
61472;BME280;47337;54.068;12.114;2023-07-13T02:04:44;100808.84;;;16.61;100.00
61472;BME280;47337;54.068;12.114;2023-07-13T02:07:10;100800.03;;;16.58;100.00
61472;BME280;47337;54.068;12.114;2023-07-13T02:09:35;100800.03;;;16.62;100.00
61472;BME280;47337;54.068;12.114;2023-07-13T02:12:01;100807.16;;;16.54;100.00
61472;BME280;47337;54.068;12.114;2023-07-13T02:14:26;100800.06;;;16.56;100.00
61472;BME280;47337;54.068;12.114;2023-07-13T02:16:52;100795.63;;;16.57;100.00
61472;BME280;47337;54.068;12.114;2023-07-13T02:19:17;100793.06;;;16.52;100.00
61472;BME280;47337;54.068;12.114;2023-07-13T02:21:46;100794.00;;;16.46;100.00
61472;BME280;47337;54.068;12.114;2023-07-13T02:24:11;100802.06;;;16.39;100.00
61472;BME280;47337;54.068;12.114;2023-07-13T02:26:45;100805.66;;;16.32;100.00
61472;BME280;47337;54.068;12.114;2023-07-13T02:29:11;100806.53;;;16.32;100.00
61472;BME280;47337;54.068;12.114;2023-07-13T02:31:36;100807.44;;;16.33;100.00
61472;BME280;47337;54.068;12.114;2023-07-13T02:34:02;100808.31;;;16.33;100.00
61472;BME280;47337;54.068;12.114;2023-07-13T02:36:31;100814.56;;;16.28;100.00
61472;BME280;47337;54.068;12.114;2023-07-13T02:39:00;100809.31;;;16.25;100.00
61472;BME280;47337;54.068;12.114;2023-07-13T02:41:26;100812.06;;;16.17;100.00
61472;BME280;47337;54.068;12.114;2023-07-13T02:43:52;100817.28;;;16.22;100.00
61472;BME280;47337;54.068;12.114;2023-07-13T02:46:17;100821.78;;;16.17;100.00
61472;BME280;47337;54.068;12.114;2023-07-13T02:48:47;100831.47;;;16.19;100.00
61472;BME280;47337;54.068;12.114;2023-07-13T02:51:12;100832.38;;;16.14;100.00
61472;BME280;47337;54.068;12.114;2023-07-13T02:53:40;100843.00;;;16.10;100.00
61472;BME280;47337;54.068;12.114;2023-07-13T02:56:05;100853.66;;;16.07;100.00
61472;BME280;47337;54.068;12.114;2023-07-13T02:58:32;100863.41;;;16.04;100.00
61472;BME280;47337;54.068;12.114;2023-07-13T03:00:57;100866.06;;;16.02;100.00
61472;BME280;47337;54.068;12.114;2023-07-13T03:03:26;100861.63;;;16.03;100.00
61472;BME280;47337;54.068;12.114;2023-07-13T03:06:00;100861.66;;;16.01;100.00
61472;BME280;47337;54.068;12.114;2023-07-13T03:08:26;100871.34;;;16.02;100.00
61472;BME280;47337;54.068;12.114;2023-07-13T03:11:05;100875.75;;;16.03;100.00
61472;BME280;47337;54.068;12.114;2023-07-13T03:13:31;100871.22;;;16.18;100.00
61472;BME280;47337;54.068;12.114;2023-07-13T03:15:59;100879.97;;;16.23;100.00
61472;BME280;47337;54.068;12.114;2023-07-13T03:18:27;100871.19;;;16.21;100.00
61472;BME280;47337;54.068;12.114;2023-07-13T03:20:53;101038.38;;;16.21;100.00
61472;BME280;47337;54.068;12.114;2023-07-13T03:23:22;55380.69;;;-143.62;100.00
61472;BME280;47337;54.068;12.114;2023-07-13T03:25:47;55380.69;;;-143.62;100.00
61472;BME280;47337;54.068;12.114;2023-07-13T03:28:13;55380.69;;;-143.62;100.00
61472;BME280;47337;54.068;12.114;2023-07-13T03:30:40;55380.69;;;-143.62;100.00
61472;BME280;47337;54.068;12.114;2023-07-13T03:33:06;55380.69;;;-143.62;100.00
61472;BME280;47337;54.068;12.114;2023-07-13T03:35:34;55380.69;;;-143.62;100.00
61472;BME280;47337;54.068;12.114;2023-07-13T03:38:00;55380.69;;;-143.62;100.00
61472;BME280;47337;54.068;12.114;2023-07-13T03:40:26;55380.69;;;-143.62;100.00
61472;BME280;47337;54.068;12.114;2023-07-13T03:42:52;55380.69;;;-143.62;100.00
61472;BME280;47337;54.068;12.114;2023-07-13T03:45:18;55380.69;;;-143.62;100.00
61472;BME280;47337;54.068;12.114;2023-07-13T03:47:44;55380.69;;;-143.62;100.00
61472;BME280;47337;54.068;12.114;2023-07-13T03:50:10;55380.69;;;-143.62;100.00
61472;BME280;47337;54.068;12.114;2023-07-13T03:52:36;55380.69;;;-143.62;100.00
61472;BME280;47337;54.068;12.114;2023-07-13T03:55:01;55380.69;;;-143.62;100.00
61472;BME280;47337;54.068;12.114;2023-07-13T03:57:29;55380.69;;;-143.62;100.00
61472;BME280;47337;54.068;12.114;2023-07-13T03:59:55;55380.69;;;-143.62;100.00
61472;BME280;47337;54.068;12.114;2023-07-13T04:02:20;55380.69;;;-143.62;100.00
61472;BME280;47337;54.068;12.114;2023-07-13T04:04:46;55380.69;;;-143.62;100.00
61472;BME280;47337;54.068;12.114;2023-07-13T04:07:11;55380.69;;;-143.62;100.00
61472;BME280;47337;54.068;12.114;2023-07-13T04:09:37;55380.69;;;-143.62;100.00
61472;BME280;47337;54.068;12.114;2023-07-13T04:12:05;55380.69;;;-143.62;100.00
61472;BME280;47337;54.068;12.114;2023-07-13T04:14:31;55380.69;;;-143.62;100.00
61472;BME280;47337;54.068;12.114;2023-07-13T04:16:58;55380.69;;;-143.62;100.00
61472;BME280;47337;54.068;12.114;2023-07-13T04:19:24;55380.69;;;-143.62;100.00
61472;BME280;47337;54.068;12.114;2023-07-13T04:21:49;55380.69;;;-143.62;100.00
61472;BME280;47337;54.068;12.114;2023-07-13T04:24:14;55380.69;;;-143.62;100.00
61472;BME280;47337;54.068;12.114;2023-07-13T04:26:40;55380.69;;;-143.62;100.00
61472;BME280;47337;54.068;12.114;2023-07-13T04:29:06;55380.69;;;-143.62;100.00
61472;BME280;47337;54.068;12.114;2023-07-13T04:31:32;55380.69;;;-143.62;100.00
61472;BME280;47337;54.068;12.114;2023-07-13T04:33:58;55380.69;;;-143.62;100.00
61472;BME280;47337;54.068;12.114;2023-07-13T04:36:26;55380.69;;;-143.62;100.00
61472;BME280;47337;54.068;12.114;2023-07-13T04:38:52;55380.69;;;-143.62;100.00
61472;BME280;47337;54.068;12.114;2023-07-13T04:41:20;55380.69;;;-143.62;100.00
61472;BME280;47337;54.068;12.114;2023-07-13T04:43:45;55380.69;;;-143.62;100.00
61472;BME280;47337;54.068;12.114;2023-07-13T04:46:19;55380.69;;;-143.62;100.00
61472;BME280;47337;54.068;12.114;2023-07-13T04:48:46;55380.69;;;-143.62;100.00
61472;BME280;47337;54.068;12.114;2023-07-13T04:51:14;55380.69;;;-143.62;100.00
61472;BME280;47337;54.068;12.114;2023-07-13T04:53:39;55380.69;;;-143.62;100.00
61472;BME280;47337;54.068;12.114;2023-07-13T04:56:05;55380.69;;;-143.62;100.00
61472;BME280;47337;54.068;12.114;2023-07-13T04:58:31;55380.69;;;-143.62;100.00
61472;BME280;47337;54.068;12.114;2023-07-13T05:01:01;55380.69;;;-143.62;100.00
61472;BME280;47337;54.068;12.114;2023-07-13T05:03:26;55380.69;;;-143.62;100.00
61472;BME280;47337;54.068;12.114;2023-07-13T05:05:59;55380.69;;;-143.62;100.00
61472;BME280;47337;54.068;12.114;2023-07-13T05:08:25;55380.69;;;-143.62;100.00
61472;BME280;47337;54.068;12.114;2023-07-13T05:10:51;55380.69;;;-143.62;100.00
61472;BME280;47337;54.068;12.114;2023-07-13T05:13:18;55380.69;;;-143.62;100.00
61472;BME280;47337;54.068;12.114;2023-07-13T05:15:43;55380.69;;;-143.62;100.00
61472;BME280;47337;54.068;12.114;2023-07-13T05:18:09;55380.69;;;-143.62;100.00
61472;BME280;47337;54.068;12.114;2023-07-13T05:20:34;55380.69;;;-143.62;100.00
61472;BME280;47337;54.068;12.114;2023-07-13T05:23:00;55380.69;;;-143.62;100.00
61472;BME280;47337;54.068;12.114;2023-07-13T05:25:25;55380.69;;;-143.62;100.00
61472;BME280;47337;54.068;12.114;2023-07-13T05:27:51;55380.69;;;-143.62;100.00
61472;BME280;47337;54.068;12.114;2023-07-13T05:30:16;55380.69;;;-143.62;100.00
61472;BME280;47337;54.068;12.114;2023-07-13T05:32:44;55380.69;;;-143.62;100.00
61472;BME280;47337;54.068;12.114;2023-07-13T05:35:11;55380.69;;;-143.62;100.00
61472;BME280;47337;54.068;12.114;2023-07-13T05:37:37;55380.69;;;-143.62;100.00
61472;BME280;47337;54.068;12.114;2023-07-13T05:40:03;55380.69;;;-143.62;100.00
61472;BME280;47337;54.068;12.114;2023-07-13T05:42:31;55380.69;;;-143.62;100.00
61472;BME280;47337;54.068;12.114;2023-07-13T05:44:57;55380.69;;;-143.62;100.00
61472;BME280;47337;54.068;12.114;2023-07-13T05:47:22;55380.69;;;-143.62;100.00
61472;BME280;47337;54.068;12.114;2023-07-13T05:49:48;55380.69;;;-143.62;100.00
61472;BME280;47337;54.068;12.114;2023-07-13T05:52:13;55380.69;;;-143.62;100.00
61472;BME280;47337;54.068;12.114;2023-07-13T05:54:38;55380.69;;;-143.62;100.00
61472;BME280;47337;54.068;12.114;2023-07-13T05:57:04;55380.69;;;-143.62;100.00
61472;BME280;47337;54.068;12.114;2023-07-13T05:59:32;55380.69;;;-143.62;100.00
61472;BME280;47337;54.068;12.114;2023-07-13T06:02:00;55380.69;;;-143.62;100.00
61472;BME280;47337;54.068;12.114;2023-07-13T06:04:28;55380.69;;;-143.62;100.00
61472;BME280;47337;54.068;12.114;2023-07-13T06:06:53;55380.69;;;-143.62;100.00
61472;BME280;47337;54.068;12.114;2023-07-13T06:09:18;55380.69;;;-143.62;100.00
61472;BME280;47337;54.068;12.114;2023-07-13T06:11:44;55380.69;;;-143.62;100.00
61472;BME280;47337;54.068;12.114;2023-07-13T06:14:10;55380.69;;;-143.62;100.00
61472;BME280;47337;54.068;12.114;2023-07-13T06:16:35;55380.69;;;-143.62;100.00
61472;BME280;47337;54.068;12.114;2023-07-13T06:19:00;55380.69;;;-143.62;100.00
61472;BME280;47337;54.068;12.114;2023-07-13T06:21:26;55380.69;;;-143.62;100.00
61472;BME280;47337;54.068;12.114;2023-07-13T06:23:53;55380.69;;;-143.62;100.00
61472;BME280;47337;54.068;12.114;2023-07-13T06:26:21;55380.69;;;-143.62;100.00
61472;BME280;47337;54.068;12.114;2023-07-13T06:28:47;55380.69;;;-143.62;100.00
61472;BME280;47337;54.068;12.114;2023-07-13T06:31:16;55380.69;;;-143.62;100.00
61472;BME280;47337;54.068;12.114;2023-07-13T06:33:44;55380.69;;;-143.62;100.00
61472;BME280;47337;54.068;12.114;2023-07-13T06:36:10;55380.69;;;-143.62;100.00
61472;BME280;47337;54.068;12.114;2023-07-13T06:38:35;55380.69;;;-143.62;100.00
61472;BME280;47337;54.068;12.114;2023-07-13T06:41:01;55380.69;;;-143.62;100.00
61472;BME280;47337;54.068;12.114;2023-07-13T06:43:34;55380.69;;;-143.62;100.00
61472;BME280;47337;54.068;12.114;2023-07-13T06:46:01;55380.69;;;-143.62;100.00
61472;BME280;47337;54.068;12.114;2023-07-13T06:48:27;55380.69;;;-143.62;100.00
61472;BME280;47337;54.068;12.114;2023-07-13T06:50:53;55380.69;;;-143.62;100.00
61472;BME280;47337;54.068;12.114;2023-07-13T06:53:19;55380.69;;;-143.62;100.00
61472;BME280;47337;54.068;12.114;2023-07-13T06:55:45;55380.69;;;-143.62;100.00
61472;BME280;47337;54.068;12.114;2023-07-13T06:58:16;55380.69;;;-143.62;100.00
61472;BME280;47337;54.068;12.114;2023-07-13T07:00:44;55380.69;;;-143.62;100.00
61472;BME280;47337;54.068;12.114;2023-07-13T07:03:10;55380.69;;;-143.62;100.00
61472;BME280;47337;54.068;12.114;2023-07-13T07:05:35;55380.69;;;-143.62;100.00
61472;BME280;47337;54.068;12.114;2023-07-13T07:08:01;55380.69;;;-143.62;100.00
61472;BME280;47337;54.068;12.114;2023-07-13T07:10:30;55380.69;;;-143.62;100.00
61472;BME280;47337;54.068;12.114;2023-07-13T07:12:58;55380.69;;;-143.62;100.00
61472;BME280;47337;54.068;12.114;2023-07-13T07:15:29;55380.69;;;-143.62;100.00
61472;BME280;47337;54.068;12.114;2023-07-13T07:17:55;55380.69;;;-143.62;100.00
61472;BME280;47337;54.068;12.114;2023-07-13T07:20:23;55380.69;;;-143.62;100.00
61472;BME280;47337;54.068;12.114;2023-07-13T07:22:48;55380.69;;;-143.62;100.00
61472;BME280;47337;54.068;12.114;2023-07-13T07:25:14;55380.69;;;-143.62;100.00
61472;BME280;47337;54.068;12.114;2023-07-13T07:27:39;55380.69;;;-143.62;100.00
61472;BME280;47337;54.068;12.114;2023-07-13T07:30:05;55380.69;;;-143.62;100.00
61472;BME280;47337;54.068;12.114;2023-07-13T07:32:32;55380.69;;;-143.62;100.00
61472;BME280;47337;54.068;12.114;2023-07-13T07:34:58;55380.69;;;-143.62;100.00
61472;BME280;47337;54.068;12.114;2023-07-13T07:37:23;55380.69;;;-143.62;100.00
61472;BME280;47337;54.068;12.114;2023-07-13T07:39:52;55380.69;;;-143.62;100.00
61472;BME280;47337;54.068;12.114;2023-07-13T07:42:17;55380.69;;;-143.62;100.00
61472;BME280;47337;54.068;12.114;2023-07-13T07:44:45;55380.69;;;-143.62;100.00
61472;BME280;47337;54.068;12.114;2023-07-13T07:47:10;55380.69;;;-143.62;100.00
61472;BME280;47337;54.068;12.114;2023-07-13T07:49:36;55380.69;;;-143.62;100.00
61472;BME280;47337;54.068;12.114;2023-07-13T07:52:01;55380.69;;;-143.62;100.00
61472;BME280;47337;54.068;12.114;2023-07-13T07:54:29;55380.69;;;-143.62;100.00
61472;BME280;47337;54.068;12.114;2023-07-13T07:56:55;55380.69;;;-143.62;100.00
61472;BME280;47337;54.068;12.114;2023-07-13T07:59:20;55380.69;;;-143.62;100.00
61472;BME280;47337;54.068;12.114;2023-07-13T08:01:49;55380.69;;;-143.62;100.00
61472;BME280;47337;54.068;12.114;2023-07-13T08:04:16;55380.69;;;-143.62;100.00
61472;BME280;47337;54.068;12.114;2023-07-13T08:06:44;55380.69;;;-143.62;100.00
61472;BME280;47337;54.068;12.114;2023-07-13T08:09:09;55380.69;;;-143.62;100.00
61472;BME280;47337;54.068;12.114;2023-07-13T08:11:37;55380.69;;;-143.62;100.00
61472;BME280;47337;54.068;12.114;2023-07-13T08:14:02;55380.69;;;-143.62;100.00
61472;BME280;47337;54.068;12.114;2023-07-13T08:16:28;55380.69;;;-143.62;100.00
61472;BME280;47337;54.068;12.114;2023-07-13T08:18:54;55380.69;;;-143.62;100.00
61472;BME280;47337;54.068;12.114;2023-07-13T08:21:22;55380.69;;;-143.62;100.00
61472;BME280;47337;54.068;12.114;2023-07-13T08:23:48;55380.69;;;-143.62;100.00
61472;BME280;47337;54.068;12.114;2023-07-13T08:26:13;55380.69;;;-143.62;100.00
61472;BME280;47337;54.068;12.114;2023-07-13T08:28:38;55380.69;;;-143.62;100.00
61472;BME280;47337;54.068;12.114;2023-07-13T08:31:07;55380.69;;;-143.62;100.00
61472;BME280;47337;54.068;12.114;2023-07-13T08:33:35;55380.69;;;-143.62;100.00
61472;BME280;47337;54.068;12.114;2023-07-13T08:36:06;55380.69;;;-143.62;100.00
61472;BME280;47337;54.068;12.114;2023-07-13T08:38:31;55380.69;;;-143.62;100.00
61472;BME280;47337;54.068;12.114;2023-07-13T08:40:57;55380.69;;;-143.62;100.00
61472;BME280;47337;54.068;12.114;2023-07-13T08:43:28;55380.69;;;-143.62;100.00
61472;BME280;47337;54.068;12.114;2023-07-13T08:46:08;55380.69;;;-143.62;100.00
61472;BME280;47337;54.068;12.114;2023-07-13T08:48:42;55380.69;;;-143.62;100.00
61472;BME280;47337;54.068;12.114;2023-07-13T08:53:57;55380.69;;;-143.62;100.00
61472;BME280;47337;54.068;12.114;2023-07-13T08:56:27;55380.69;;;-143.62;100.00
61472;BME280;47337;54.068;12.114;2023-07-13T08:58:58;55380.69;;;-143.62;100.00
61472;BME280;47337;54.068;12.114;2023-07-13T09:01:34;55380.69;;;-143.62;100.00
61472;BME280;47337;54.068;12.114;2023-07-13T09:04:11;55380.69;;;-143.62;100.00
61472;BME280;47337;54.068;12.114;2023-07-13T09:17:23;55380.69;;;-143.62;100.00
61472;BME280;47337;54.068;12.114;2023-07-13T09:20:02;55380.69;;;-143.62;100.00
61472;BME280;47337;54.068;12.114;2023-07-13T09:22:32;55380.69;;;-143.62;100.00
61472;BME280;47337;54.068;12.114;2023-07-13T09:25:19;55380.69;;;-143.62;100.00
61472;BME280;47337;54.068;12.114;2023-07-13T09:27:49;55380.69;;;-143.62;100.00
61472;BME280;47337;54.068;12.114;2023-07-13T09:30:25;55380.69;;;-143.62;100.00
61472;BME280;47337;54.068;12.114;2023-07-13T09:32:53;55380.69;;;-143.62;100.00
61472;BME280;47337;54.068;12.114;2023-07-13T09:35:21;55380.69;;;-143.62;100.00
61472;BME280;47337;54.068;12.114;2023-07-13T09:37:48;55380.69;;;-143.62;100.00
61472;BME280;47337;54.068;12.114;2023-07-13T09:40:35;55380.69;;;-143.62;100.00
61472;BME280;47337;54.068;12.114;2023-07-13T09:43:01;55380.69;;;-143.62;100.00
61472;BME280;47337;54.068;12.114;2023-07-13T09:45:32;55380.69;;;-143.62;100.00
61472;BME280;47337;54.068;12.114;2023-07-13T09:48:06;55380.69;;;-143.62;100.00
61472;BME280;47337;54.068;12.114;2023-07-13T09:50:33;55380.69;;;-143.62;100.00
61472;BME280;47337;54.068;12.114;2023-07-13T09:53:00;55380.69;;;-143.62;100.00
61472;BME280;47337;54.068;12.114;2023-07-13T09:55:37;55380.69;;;-143.62;100.00
61472;BME280;47337;54.068;12.114;2023-07-13T09:58:06;55380.69;;;-143.62;100.00
61472;BME280;47337;54.068;12.114;2023-07-13T10:00:35;55380.69;;;-143.62;100.00
61472;BME280;47337;54.068;12.114;2023-07-13T10:05:45;55380.69;;;-143.62;100.00
61472;BME280;47337;54.068;12.114;2023-07-13T10:08:29;55380.69;;;-143.62;100.00
61472;BME280;47337;54.068;12.114;2023-07-13T10:11:00;55380.69;;;-143.62;100.00
61472;BME280;47337;54.068;12.114;2023-07-13T10:13:35;55380.69;;;-143.62;100.00
61472;BME280;47337;54.068;12.114;2023-07-13T10:16:06;55380.69;;;-143.62;100.00
61472;BME280;47337;54.068;12.114;2023-07-13T10:21:17;55380.69;;;-143.62;100.00
61472;BME280;47337;54.068;12.114;2023-07-13T10:23:48;55380.69;;;-143.62;100.00
61472;BME280;47337;54.068;12.114;2023-07-13T10:26:23;55380.69;;;-143.62;100.00
61472;BME280;47337;54.068;12.114;2023-07-13T10:28:56;55380.69;;;-143.62;100.00
61472;BME280;47337;54.068;12.114;2023-07-13T10:31:25;55380.69;;;-143.62;100.00
61472;BME280;47337;54.068;12.114;2023-07-13T10:33:51;55380.69;;;-143.62;100.00
61472;BME280;47337;54.068;12.114;2023-07-13T10:36:27;55380.69;;;-143.62;100.00
61472;BME280;47337;54.068;12.114;2023-07-13T10:38:59;55380.69;;;-143.62;100.00
61472;BME280;47337;54.068;12.114;2023-07-13T10:41:27;55380.69;;;-143.62;100.00
61472;BME280;47337;54.068;12.114;2023-07-13T10:43:56;55380.69;;;-143.62;100.00
61472;BME280;47337;54.068;12.114;2023-07-13T10:46:25;55380.69;;;-143.62;100.00
61472;BME280;47337;54.068;12.114;2023-07-13T10:48:58;55380.69;;;-143.62;100.00
61472;BME280;47337;54.068;12.114;2023-07-13T10:51:25;55380.69;;;-143.62;100.00
61472;BME280;47337;54.068;12.114;2023-07-13T10:54:18;55380.69;;;-143.62;100.00
61472;BME280;47337;54.068;12.114;2023-07-13T10:56:45;55380.69;;;-143.62;100.00
61472;BME280;47337;54.068;12.114;2023-07-13T11:04:23;55380.69;;;-143.62;100.00
61472;BME280;47337;54.068;12.114;2023-07-13T11:06:56;55380.69;;;-143.62;100.00
61472;BME280;47337;54.068;12.114;2023-07-13T11:11:56;55380.69;;;-143.62;100.00
61472;BME280;47337;54.068;12.114;2023-07-13T11:14:42;55380.69;;;-143.62;100.00
61472;BME280;47337;54.068;12.114;2023-07-13T11:22:49;55380.69;;;-143.62;100.00
61472;BME280;47337;54.068;12.114;2023-07-13T11:25:32;55380.69;;;-143.62;100.00
61472;BME280;47337;54.068;12.114;2023-07-13T11:28:16;55380.69;;;-143.62;100.00
61472;BME280;47337;54.068;12.114;2023-07-13T11:41:07;55380.69;;;-143.62;100.00
61472;BME280;47337;54.068;12.114;2023-07-13T11:43:40;55380.69;;;-143.62;100.00
61472;BME280;47337;54.068;12.114;2023-07-13T11:46:20;55380.69;;;-143.62;100.00
61472;BME280;47337;54.068;12.114;2023-07-13T11:48:46;55380.69;;;-143.62;100.00
61472;BME280;47337;54.068;12.114;2023-07-13T11:51:34;55380.69;;;-143.62;100.00
61472;BME280;47337;54.068;12.114;2023-07-13T11:54:26;55380.69;;;-143.62;100.00
61472;BME280;47337;54.068;12.114;2023-07-13T11:56:54;55380.69;;;-143.62;100.00
61472;BME280;47337;54.068;12.114;2023-07-13T11:59:21;55380.69;;;-143.62;100.00
61472;BME280;47337;54.068;12.114;2023-07-13T12:01:50;55380.69;;;-143.62;100.00
61472;BME280;47337;54.068;12.114;2023-07-13T12:04:24;55380.69;;;-143.62;100.00
61472;BME280;47337;54.068;12.114;2023-07-13T12:07:16;55380.69;;;-143.62;100.00
61472;BME280;47337;54.068;12.114;2023-07-13T12:09:44;55380.69;;;-143.62;100.00
61472;BME280;47337;54.068;12.114;2023-07-13T12:12:17;55380.69;;;-143.62;100.00
61472;BME280;47337;54.068;12.114;2023-07-13T12:14:43;55380.69;;;-143.62;100.00
61472;BME280;47337;54.068;12.114;2023-07-13T12:17:22;55380.69;;;-143.62;100.00
61472;BME280;47337;54.068;12.114;2023-07-13T12:19:52;55380.69;;;-143.62;100.00
61472;BME280;47337;54.068;12.114;2023-07-13T12:22:21;55380.69;;;-143.62;100.00
61472;BME280;47337;54.068;12.114;2023-07-13T12:24:48;55380.69;;;-143.62;100.00
61472;BME280;47337;54.068;12.114;2023-07-13T12:27:22;55380.69;;;-143.62;100.00
61472;BME280;47337;54.068;12.114;2023-07-13T12:29:59;55380.69;;;-143.62;100.00
61472;BME280;47337;54.068;12.114;2023-07-13T12:32:26;55380.69;;;-143.62;100.00
61472;BME280;47337;54.068;12.114;2023-07-13T12:37:51;55380.69;;;-143.62;100.00
61472;BME280;47337;54.068;12.114;2023-07-13T12:40:21;55380.69;;;-143.62;100.00
61472;BME280;47337;54.068;12.114;2023-07-13T12:42:51;55380.69;;;-143.62;100.00
61472;BME280;47337;54.068;12.114;2023-07-13T12:45:23;55380.69;;;-143.62;100.00
61472;BME280;47337;54.068;12.114;2023-07-13T12:48:03;55380.69;;;-143.62;100.00
61472;BME280;47337;54.068;12.114;2023-07-13T12:50:43;55380.69;;;-143.62;100.00
61472;BME280;47337;54.068;12.114;2023-07-13T12:53:22;55380.69;;;-143.62;100.00
61472;BME280;47337;54.068;12.114;2023-07-13T12:55:58;55380.69;;;-143.62;100.00
61472;BME280;47337;54.068;12.114;2023-07-13T12:58:30;55380.69;;;-143.62;100.00
61472;BME280;47337;54.068;12.114;2023-07-13T13:00:58;55380.69;;;-143.62;100.00
61472;BME280;47337;54.068;12.114;2023-07-13T13:03:35;55380.69;;;-143.62;100.00
61472;BME280;47337;54.068;12.114;2023-07-13T13:06:27;55380.69;;;-143.62;100.00
61472;BME280;47337;54.068;12.114;2023-07-13T13:08:56;55380.69;;;-143.62;100.00
61472;BME280;47337;54.068;12.114;2023-07-13T13:11:28;55380.69;;;-143.62;100.00
61472;BME280;47337;54.068;12.114;2023-07-13T13:13:54;55380.69;;;-143.62;100.00
61472;BME280;47337;54.068;12.114;2023-07-13T13:16:31;55380.69;;;-143.62;100.00
61472;BME280;47337;54.068;12.114;2023-07-13T13:18:59;55380.69;;;-143.62;100.00